Reading, Illinois
Current Conditions -  °F | °C
As of 1:55 AM on Monday 24 Nov 2014 (Local Time) from KPNT Reporting Station
Light Rain Light Rain  
Wind Chill: 50°   Ceiling: 200
Heat Index: 50°   Visibility: 2.5mi
Dew Point: 50°   Wind: 8mph
Humidity: 100%   Direction: 230°SW
Pressure: 29.13"   Gusts: NA
Location:  41.0465°N, 88.8725°W
Report Text: KPNT 240755Z AUTO 23007KT 2 1/2SM -RA OVC002 10/10 A2913 RMK AO2 P0004 T01000100
Loading
Personal Weather Stations






























Interactive Weather Map New forecast layout! Learn more

10-Day Weather Forecast

Advertisements
Track Severe Weather on mobile